• Join FlightAware (Why Join?)
  • Login
  • US Flag 
10:37AM EDT


 

Airport Tracker/Info


-or-


 

Live Flight TrackerFlight Track Log ✈ N804CE ✈ 27-Apr-2012 ✈ KCHS - KBAK

Flight Track Log - Related Links

Times and Time Zones

All times are in EDT time to prevent confusion due to time zone crossing. See the N804CE flight status page for this flight to view local times or setup timezone preferences in your user account.

Time Position Orientation Groundspeed Altitude Reporting Facility
EDT Latitude Longitude Course Direction KTS MPH feet Rate Location/Type
04:14PM 32.9179 -80.0585 215° Southwest  Level FlightAware Approximate
04:14PM 32.8481 -80.1158 329° Northwest 238 274 4,300  Level Jacksonville Center
04:15PM 32.9072 -80.1586 349° North 290 334 7,500 2,820 Climbing Jacksonville Center
04:16PM 32.9850 -80.1758 348° North 332 382 10,000 2,160 Climbing Jacksonville Center
04:17PM 33.0647 -80.1958 349° North 334 384 11,900 2,280 Climbing Jacksonville Center
04:18PM 33.1506 -80.2156 348° North 324 373 14,600 2,040 Climbing Jacksonville Center
04:19PM 33.2389 -80.2378 329° Northwest 319 367 16,000 1,740 Climbing Jacksonville Center
04:20PM 33.3172 -80.2950 322° Northwest 319 367 18,100 1,980 Climbing Jacksonville Center
04:21PM 33.3875 -80.3603 321° Northwest 319 367 20,000 1,740 Climbing Jacksonville Center
04:22PM 33.4575 -80.4278 322° Northwest 319 367 21,600 1,500 Climbing Jacksonville Center
04:23PM 33.5297 -80.4956 319° Northwest 324 373 23,000 1,260 Climbing Jacksonville Center
04:24PM 33.6000 -80.5686 308° West 334 384 24,200 1,080 Climbing Jacksonville Center
04:25PM 33.6581 -80.6569 309° West 334 384 25,200 1,200 Climbing Jacksonville Center
04:26PM 33.7181 -80.7453 308° West 339 390 26,600 1,500 Climbing Jacksonville Center
04:27PM 33.7736 -80.8314 312° West 339 390 28,200 1,560 Climbing Jacksonville Center
04:28PM 33.8314 -80.9100 311° West 328 377 29,800 1,440 Climbing Jacksonville Center
04:29PM 33.8867 -80.9864 311° West 316 364 31,100 1,320 Climbing Jacksonville Center
04:30PM 33.9464 -81.0700 338° Northwest 306 352 32,500 960 Climbing Jacksonville Center
04:32PM 34.1019 -81.1469 340° North 300 345 34,000 360 Climbing Jacksonville Center
04:34PM 34.2375 -81.2069 337° Northwest 310 357 34,000  Level Atlanta Center
04:35PM 34.3197 -81.2494 337° Northwest 323 372 34,000  Level Atlanta Center
04:36PM 34.4064 -81.2944 350° North 323 372 34,000  Level Atlanta Center
04:37PM 34.4944 -81.3142 355° North 323 372 34,000  Level Atlanta Center
04:38PM 34.5886 -81.3239 355° North 323 372 34,000  Level Atlanta Center
04:39PM 34.6828 -81.3333 352° North 337 388 34,000  Level Atlanta Center
04:40PM 34.7728 -81.3483 346° North 332 382 34,000  Level Atlanta Center
04:41PM 34.8611 -81.3758 321° Northwest 326 375 34,000  Level Atlanta Center
04:42PM 34.9356 -81.4494 319° Northwest 313 360 34,000  Level Atlanta Center
04:43PM 34.9997 -81.5183 319° Northwest 313 360 34,000  Level Atlanta Center
04:44PM 35.0678 -81.5900 319° Northwest 306 352 34,000  Level Atlanta Center
04:45PM 35.1339 -81.6592 318° Northwest 319 367 34,000  Level Atlanta Center
04:46PM 35.2000 -81.7308 318° Northwest 319 367 34,000  Level Atlanta Center
04:47PM 35.2661 -81.8028 318° Northwest 319 367 34,000  Level Atlanta Center
04:48PM 35.3319 -81.8747 319° Northwest 314 361 34,000  Level Atlanta Center
04:49PM 35.3894 -81.9369 318° Northwest 314 361 34,000  Level Atlanta Center
04:50PM 35.4553 -82.0092 318° Northwest 319 367 34,000  Level Atlanta Center
04:51PM 35.5211 -82.0817 320° Northwest 319 367 34,000  Level Atlanta Center
04:52PM 35.5889 -82.1517 317° Northwest 319 367 34,000  Level Atlanta Center
04:53PM 35.6547 -82.2267 319° Northwest 319 367 34,000  Level Atlanta Center
04:54PM 35.7225 -82.2994 318° Northwest 319 367 34,000  Level Atlanta Center
04:55PM 35.7883 -82.3722 318° Northwest 313 360 34,000  Level Atlanta Center
04:56PM 35.8519 -82.4425 319° Northwest 313 360 34,000  Level Atlanta Center
04:57PM 35.9194 -82.5156 318° Northwest 313 360 34,000  Level Atlanta Center
04:58PM 35.9850 -82.5889 318° Northwest 319 367 34,000  Level Atlanta Center
04:59PM 36.0506 -82.6622 317° Northwest 319 367 34,000  Level Atlanta Center
05:00PM 36.1119 -82.7331 319° Northwest 313 360 34,000  Level Atlanta Center
05:01PM 36.1772 -82.8039 317° Northwest 313 360 34,000  Level Atlanta Center
05:02PM 36.2406 -82.8778 317° Northwest 308 354 34,000  Level Atlanta Center
05:04PM 36.3500 -83.0028 318° Northwest 310 357 34,000  Level Indianapolis Center
05:05PM 36.4147 -83.0744 317° Northwest 310 357 34,000  Level Indianapolis Center
05:06PM 36.4797 -83.1489 316° Northwest 315 362 34,000  Level Indianapolis Center
05:07PM 36.5425 -83.2236 318° Northwest 315 362 34,000  Level Indianapolis Center
05:08PM 36.6075 -83.2958 317° Northwest 315 362 34,000  Level Indianapolis Center
05:09PM 36.6722 -83.3706 318° Northwest 315 362 34,000  Level Indianapolis Center
05:10PM 36.7369 -83.4431 317° Northwest 315 362 34,000  Level Indianapolis Center
05:11PM 36.8017 -83.5181 317° Northwest 315 362 34,000  Level Indianapolis Center
05:12PM 36.8622 -83.5881 318° Northwest 320 368 34,000  Level Indianapolis Center
05:13PM 36.9269 -83.6608 318° Northwest 314 361 34,000  Level Indianapolis Center
05:14PM 36.9914 -83.7339 318° Northwest 314 361 34,000  Level Indianapolis Center
05:15PM 37.0581 -83.8094 316° Northwest 319 367 34,000  Level Indianapolis Center
05:16PM 37.1206 -83.8853 318° Northwest 314 361 34,000  Level Indianapolis Center
05:17PM 37.1850 -83.9586 318° Northwest 319 367 34,000  Level Indianapolis Center
05:18PM 37.2514 -84.0344 318° Northwest 314 361 34,000  Level Indianapolis Center
05:19PM 37.3136 -84.1053 317° Northwest 314 361 34,000  Level Indianapolis Center
05:20PM 37.3781 -84.1817 317° Northwest 314 361 34,000  Level Indianapolis Center
05:21PM 37.4400 -84.2553 317° Northwest 314 361 34,000  Level Indianapolis Center
05:22PM 37.5042 -84.3294 317° Northwest 314 361 34,000 -120 Level Indianapolis Center
05:23PM 37.5664 -84.4033 317° Northwest 314 361 33,800 -360 Descending Indianapolis Center
05:24PM 37.6306 -84.4800 316° Northwest 314 361 33,300 -720 Descending Indianapolis Center
05:25PM 37.6944 -84.5569 317° Northwest 314 361 32,400 -1,260 Descending Indianapolis Center
05:26PM 37.7625 -84.6367 317° Northwest 320 368 30,800 -1,680 Descending Indianapolis Center
05:27PM 37.8306 -84.7167 316° Northwest 320 368 29,100 -1,440 Descending Indianapolis Center
05:28PM 37.9047 -84.8072 316° Northwest 326 375 28,000 -600 Descending Indianapolis Center
05:29PM 37.9728 -84.8900 318° Northwest 331 381 28,000  Level Indianapolis Center
05:30PM 38.0447 -84.9731 317° Northwest 341 392 28,000  Level Indianapolis Center
05:31PM 38.1147 -85.0564 318° Northwest 341 392 28,000 -600 Level Indianapolis Center
05:32PM 38.1844 -85.1369 315° West 341 392 26,800 -1,800 Descending Indianapolis Center
05:33PM 38.2439 -85.2125 316° Northwest 336 387 24,400 -2,520 Descending Indianapolis Center
05:34PM 38.3158 -85.3014 319° Northwest 347 399 21,800 -2,820 Descending Indianapolis Center
05:35PM 38.3958 -85.3911 321° Northwest 363 418 18,900 -2,760 Descending FAA TRACON SMA TRACON (SMA)
05:36PM 38.4500 -85.4478 334° Northwest 365 420 17,300 -2,100 Descending FAA TRACON SMA TRACON (SMA)
05:36PM 38.5044 -85.4814 336° Northwest 356 410 16,100 -1,080 Descending FAA TRACON SMA TRACON (SMA)
05:37PM 38.5675 -85.5167 337° Northwest 357 411 15,900 -180 Descending FAA TRACON SMA TRACON (SMA)
05:38PM 38.6303 -85.5511 337° Northwest 355 409 15,900 -300 Level FAA TRACON SMA TRACON (SMA)
05:38PM 38.6864 -85.5819 338° Northwest 356 410 15,500 -1,140 Descending FAA TRACON SMA TRACON (SMA)
05:39PM 38.7447 -85.6128 337° Northwest 328 377 14,400 -1,980 Descending FAA TRACON SMA TRACON (SMA)
05:40PM 38.7961 -85.6408 336° Northwest 290 334 12,900 -2,280 Descending FAA TRACON SMA TRACON (SMA)
05:40PM 38.8397 -85.6656 337° Northwest 278 320 11,400 -2,640 Descending FAA TRACON SMA TRACON (SMA)
05:41PM 38.8878 -85.6914 337° Northwest 270 311 9,400 -2,880 Descending FAA TRACON SMA TRACON (SMA)
05:42PM 38.9594 -85.7308 337° Northwest 270 311 6,600 -2,220 Descending Indianapolis Center
05:43PM 39.0172 -85.7619 334° Northwest 270 311 5,000 -1,140 Descending Indianapolis Center
05:44PM 39.0708 -85.7958 327° Northwest 233 268 4,400 -1,200 Descending Indianapolis Center
05:45PM 39.1181 -85.8347 327° Northwest 208 239 2,700 -1,140 Descending Indianapolis Center
05:46PM 39.1650 -85.8736 326° Northwest 208 239 2,200 -360 Descending Indianapolis Center
05:47PM 39.1939 -85.8989 331° Northwest 159 183 2,000 -420 Descending Indianapolis Center
05:48PM 39.2247 -85.9211 333° Northwest 125 144 1,400 -420 Descending Indianapolis Center
05:49PM 39.2597 -85.9439 334° Northwest 119 137 1,200 1,800 Descending Indianapolis Center
05:50PM 39.2906 -85.9636 331° Northwest 119 137 5,000 1,860 Climbing Indianapolis Center
05:51PM 39.3214 -85.9861 333° Northwest 119 137 5,000  Level Indianapolis Center
05:52PM 39.3522 -86.0061 332° Northwest 119 137 5,000  Level Indianapolis Center
05:53PM 39.3644 -86.0144 332° Northwest 119 137 5,000  Level Indianapolis Center